sensor_id;sensor_type;location;lat;lon;timestamp;P1;durP1;ratioP1;P2;durP2;ratioP2
49610;SDS011;35515;48.766;9.176;2023-08-30T00:00:55;11.25;;;8.48;;
49610;SDS011;35515;48.766;9.176;2023-08-30T00:03:21;10.15;;;7.78;;
49610;SDS011;35515;48.766;9.176;2023-08-30T00:05:48;10.10;;;8.00;;
49610;SDS011;35515;48.766;9.176;2023-08-30T00:08:14;9.00;;;8.10;;
49610;SDS011;35515;48.766;9.176;2023-08-30T00:10:43;8.68;;;7.82;;
49610;SDS011;35515;48.766;9.176;2023-08-30T00:13:11;9.38;;;8.20;;
49610;SDS011;35515;48.766;9.176;2023-08-30T00:15:38;10.68;;;7.65;;
49610;SDS011;35515;48.766;9.176;2023-08-30T00:18:05;9.48;;;8.25;;
49610;SDS011;35515;48.766;9.176;2023-08-30T00:20:32;8.10;;;7.20;;
49610;SDS011;35515;48.766;9.176;2023-08-30T00:22:59;8.85;;;7.68;;
49610;SDS011;35515;48.766;9.176;2023-08-30T00:25:25;8.50;;;7.65;;
49610;SDS011;35515;48.766;9.176;2023-08-30T00:27:52;9.13;;;7.93;;
49610;SDS011;35515;48.766;9.176;2023-08-30T00:30:20;8.82;;;7.93;;
49610;SDS011;35515;48.766;9.176;2023-08-30T00:32:46;10.05;;;7.57;;
49610;SDS011;35515;48.766;9.176;2023-08-30T00:35:13;9.48;;;7.65;;
49610;SDS011;35515;48.766;9.176;2023-08-30T00:37:40;8.43;;;7.18;;
49610;SDS011;35515;48.766;9.176;2023-08-30T00:40:06;10.18;;;7.88;;
49610;SDS011;35515;48.766;9.176;2023-08-30T00:42:33;10.73;;;8.07;;
49610;SDS011;35515;48.766;9.176;2023-08-30T00:45:00;11.27;;;8.18;;
49610;SDS011;35515;48.766;9.176;2023-08-30T00:47:28;9.13;;;8.18;;
49610;SDS011;35515;48.766;9.176;2023-08-30T00:49:54;8.25;;;7.45;;
49610;SDS011;35515;48.766;9.176;2023-08-30T00:52:21;8.60;;;7.70;;
49610;SDS011;35515;48.766;9.176;2023-08-30T00:54:48;9.90;;;8.30;;
49610;SDS011;35515;48.766;9.176;2023-08-30T00:57:14;9.98;;;8.13;;
49610;SDS011;35515;48.766;9.176;2023-08-30T00:59:42;10.15;;;8.30;;
49610;SDS011;35515;48.766;9.176;2023-08-30T01:02:08;9.27;;;8.30;;
49610;SDS011;35515;48.766;9.176;2023-08-30T01:04:37;8.07;;;7.25;;
49610;SDS011;35515;48.766;9.176;2023-08-30T01:07:03;8.80;;;6.75;;
49610;SDS011;35515;48.766;9.176;2023-08-30T01:09:30;7.50;;;6.78;;
49610;SDS011;35515;48.766;9.176;2023-08-30T01:11:57;10.57;;;7.93;;
49610;SDS011;35515;48.766;9.176;2023-08-30T01:14:31;9.07;;;7.20;;
49610;SDS011;35515;48.766;9.176;2023-08-30T01:17:04;8.05;;;7.35;;
49610;SDS011;35515;48.766;9.176;2023-08-30T01:19:36;9.98;;;8.27;;
49610;SDS011;35515;48.766;9.176;2023-08-30T01:22:10;9.73;;;7.95;;
49610;SDS011;35515;48.766;9.176;2023-08-30T01:24:42;9.35;;;7.30;;
49610;SDS011;35515;48.766;9.176;2023-08-30T01:27:16;9.20;;;6.93;;
49610;SDS011;35515;48.766;9.176;2023-08-30T01:29:44;7.72;;;7.00;;
49610;SDS011;35515;48.766;9.176;2023-08-30T01:32:12;10.65;;;7.93;;
49610;SDS011;35515;48.766;9.176;2023-08-30T01:34:39;8.57;;;7.68;;
49610;SDS011;35515;48.766;9.176;2023-08-30T01:37:07;9.20;;;8.10;;
49610;SDS011;35515;48.766;9.176;2023-08-30T01:39:34;8.98;;;8.07;;
49610;SDS011;35515;48.766;9.176;2023-08-30T01:42:03;8.43;;;7.63;;
49610;SDS011;35515;48.766;9.176;2023-08-30T01:44:32;12.02;;;7.60;;
49610;SDS011;35515;48.766;9.176;2023-08-30T01:46:59;10.02;;;7.57;;
49610;SDS011;35515;48.766;9.176;2023-08-30T01:49:29;8.70;;;7.82;;
49610;SDS011;35515;48.766;9.176;2023-08-30T01:51:57;9.50;;;7.78;;
49610;SDS011;35515;48.766;9.176;2023-08-30T01:54:25;8.15;;;7.35;;
49610;SDS011;35515;48.766;9.176;2023-08-30T01:56:53;8.80;;;7.50;;
49610;SDS011;35515;48.766;9.176;2023-08-30T01:59:20;9.30;;;7.28;;
49610;SDS011;35515;48.766;9.176;2023-08-30T02:01:48;8.95;;;6.55;;
49610;SDS011;35515;48.766;9.176;2023-08-30T02:04:14;7.50;;;6.80;;
49610;SDS011;35515;48.766;9.176;2023-08-30T02:06:42;8.80;;;7.90;;
49610;SDS011;35515;48.766;9.176;2023-08-30T02:09:14;11.02;;;7.32;;
49610;SDS011;35515;48.766;9.176;2023-08-30T02:11:45;8.23;;;7.43;;
49610;SDS011;35515;48.766;9.176;2023-08-30T02:14:14;10.10;;;7.57;;
49610;SDS011;35515;48.766;9.176;2023-08-30T02:16:43;9.18;;;7.75;;
49610;SDS011;35515;48.766;9.176;2023-08-30T02:19:13;9.05;;;7.60;;
49610;SDS011;35515;48.766;9.176;2023-08-30T02:21:42;8.20;;;6.95;;
49610;SDS011;35515;48.766;9.176;2023-08-30T02:24:08;9.30;;;7.10;;
49610;SDS011;35515;48.766;9.176;2023-08-30T02:26:35;9.15;;;7.80;;
49610;SDS011;35515;48.766;9.176;2023-08-30T02:29:02;8.80;;;7.80;;
49610;SDS011;35515;48.766;9.176;2023-08-30T02:31:28;7.60;;;6.90;;
49610;SDS011;35515;48.766;9.176;2023-08-30T02:33:55;8.15;;;7.32;;
49610;SDS011;35515;48.766;9.176;2023-08-30T02:36:22;8.60;;;7.13;;
49610;SDS011;35515;48.766;9.176;2023-08-30T02:38:49;9.25;;;7.60;;
49610;SDS011;35515;48.766;9.176;2023-08-30T02:41:16;9.27;;;7.70;;
49610;SDS011;35515;48.766;9.176;2023-08-30T02:43:42;8.43;;;7.63;;
49610;SDS011;35515;48.766;9.176;2023-08-30T02:46:09;12.05;;;8.18;;
49610;SDS011;35515;48.766;9.176;2023-08-30T02:48:35;7.90;;;7.18;;
49610;SDS011;35515;48.766;9.176;2023-08-30T02:51:02;8.35;;;7.55;;
49610;SDS011;35515;48.766;9.176;2023-08-30T02:53:30;7.78;;;6.88;;
49610;SDS011;35515;48.766;9.176;2023-08-30T02:55:56;8.68;;;7.88;;
49610;SDS011;35515;48.766;9.176;2023-08-30T02:58:23;9.20;;;7.15;;
49610;SDS011;35515;48.766;9.176;2023-08-30T03:00:49;9.27;;;7.00;;
49610;SDS011;35515;48.766;9.176;2023-08-30T03:03:16;10.15;;;7.15;;
49610;SDS011;35515;48.766;9.176;2023-08-30T03:05:42;7.93;;;7.05;;
49610;SDS011;35515;48.766;9.176;2023-08-30T03:08:09;9.02;;;8.13;;
49610;SDS011;35515;48.766;9.176;2023-08-30T03:10:37;9.35;;;7.88;;
49610;SDS011;35515;48.766;9.176;2023-08-30T03:13:03;10.35;;;8.23;;
49610;SDS011;35515;48.766;9.176;2023-08-30T03:15:30;8.65;;;7.38;;
49610;SDS011;35515;48.766;9.176;2023-08-30T03:17:57;8.48;;;7.50;;
49610;SDS011;35515;48.766;9.176;2023-08-30T03:20:23;8.20;;;7.40;;
49610;SDS011;35515;48.766;9.176;2023-08-30T03:22:50;9.05;;;7.93;;
49610;SDS011;35515;48.766;9.176;2023-08-30T03:25:16;9.45;;;8.10;;
49610;SDS011;35515;48.766;9.176;2023-08-30T03:27:44;9.00;;;8.10;;
49610;SDS011;35515;48.766;9.176;2023-08-30T03:30:11;8.70;;;7.40;;
49610;SDS011;35515;48.766;9.176;2023-08-30T03:32:38;10.43;;;8.13;;
49610;SDS011;35515;48.766;9.176;2023-08-30T03:35:05;8.70;;;7.80;;
49610;SDS011;35515;48.766;9.176;2023-08-30T03:37:33;9.07;;;7.85;;
49610;SDS011;35515;48.766;9.176;2023-08-30T03:39:59;9.35;;;8.43;;
49610;SDS011;35515;48.766;9.176;2023-08-30T03:42:26;8.55;;;7.75;;
49610;SDS011;35515;48.766;9.176;2023-08-30T03:44:54;9.35;;;7.88;;
49610;SDS011;35515;48.766;9.176;2023-08-30T03:47:21;10.07;;;7.88;;
49610;SDS011;35515;48.766;9.176;2023-08-30T03:49:47;10.63;;;8.43;;
49610;SDS011;35515;48.766;9.176;2023-08-30T03:52:14;13.07;;;8.93;;
49610;SDS011;35515;48.766;9.176;2023-08-30T03:54:40;8.13;;;7.18;;
49610;SDS011;35515;48.766;9.176;2023-08-30T03:57:07;10.00;;;7.63;;
49610;SDS011;35515;48.766;9.176;2023-08-30T03:59:33;11.23;;;8.40;;
49610;SDS011;35515;48.766;9.176;2023-08-30T04:02:01;9.48;;;7.60;;
49610;SDS011;35515;48.766;9.176;2023-08-30T04:04:28;9.15;;;8.25;;
49610;SDS011;35515;48.766;9.176;2023-08-30T04:06:54;10.48;;;8.10;;
49610;SDS011;35515;48.766;9.176;2023-08-30T04:09:21;11.80;;;7.90;;
49610;SDS011;35515;48.766;9.176;2023-08-30T04:11:56;10.40;;;9.30;;
49610;SDS011;35515;48.766;9.176;2023-08-30T04:14:25;9.50;;;8.32;;
49610;SDS011;35515;48.766;9.176;2023-08-30T04:16:51;9.70;;;8.73;;
49610;SDS011;35515;48.766;9.176;2023-08-30T04:19:19;9.73;;;8.68;;
49610;SDS011;35515;48.766;9.176;2023-08-30T04:21:46;10.07;;;8.20;;
49610;SDS011;35515;48.766;9.176;2023-08-30T04:24:12;9.48;;;8.57;;
49610;SDS011;35515;48.766;9.176;2023-08-30T04:26:39;9.60;;;7.72;;
49610;SDS011;35515;48.766;9.176;2023-08-30T04:29:06;9.40;;;7.82;;
49610;SDS011;35515;48.766;9.176;2023-08-30T04:31:32;13.13;;;8.80;;
49610;SDS011;35515;48.766;9.176;2023-08-30T04:33:59;11.65;;;8.38;;
49610;SDS011;35515;48.766;9.176;2023-08-30T04:36:27;8.77;;;7.88;;
49610;SDS011;35515;48.766;9.176;2023-08-30T04:38:53;9.65;;;7.35;;
49610;SDS011;35515;48.766;9.176;2023-08-30T04:41:20;9.63;;;8.60;;
49610;SDS011;35515;48.766;9.176;2023-08-30T04:43:46;10.20;;;9.20;;
49610;SDS011;35515;48.766;9.176;2023-08-30T04:46:13;9.80;;;8.05;;
49610;SDS011;35515;48.766;9.176;2023-08-30T04:48:39;9.07;;;8.15;;
49610;SDS011;35515;48.766;9.176;2023-08-30T04:51:06;11.18;;;8.82;;
49610;SDS011;35515;48.766;9.176;2023-08-30T04:53:34;9.15;;;7.85;;
49610;SDS011;35515;48.766;9.176;2023-08-30T04:56:00;10.70;;;9.43;;
49610;SDS011;35515;48.766;9.176;2023-08-30T04:58:35;10.80;;;8.77;;
49610;SDS011;35515;48.766;9.176;2023-08-30T05:01:02;9.90;;;8.90;;
49610;SDS011;35515;48.766;9.176;2023-08-30T05:03:28;12.52;;;8.65;;
49610;SDS011;35515;48.766;9.176;2023-08-30T05:05:55;11.75;;;9.50;;
49610;SDS011;35515;48.766;9.176;2023-08-30T05:08:21;10.07;;;9.00;;
49610;SDS011;35515;48.766;9.176;2023-08-30T05:10:49;10.10;;;8.82;;
49610;SDS011;35515;48.766;9.176;2023-08-30T05:13:16;9.50;;;8.43;;
49610;SDS011;35515;48.766;9.176;2023-08-30T05:15:42;10.90;;;8.35;;
49610;SDS011;35515;48.766;9.176;2023-08-30T05:18:09;10.20;;;8.43;;
49610;SDS011;35515;48.766;9.176;2023-08-30T05:20:35;9.60;;;8.52;;
49610;SDS011;35515;48.766;9.176;2023-08-30T05:23:02;10.43;;;8.50;;
49610;SDS011;35515;48.766;9.176;2023-08-30T05:25:29;9.30;;;8.30;;
49610;SDS011;35515;48.766;9.176;2023-08-30T05:27:57;11.10;;;8.65;;
49610;SDS011;35515;48.766;9.176;2023-08-30T05:30:23;9.80;;;8.80;;
49610;SDS011;35515;48.766;9.176;2023-08-30T05:32:50;14.30;;;9.82;;
49610;SDS011;35515;48.766;9.176;2023-08-30T05:35:16;11.85;;;8.88;;
49610;SDS011;35515;48.766;9.176;2023-08-30T05:37:43;8.18;;;7.30;;
49610;SDS011;35515;48.766;9.176;2023-08-30T05:40:10;12.40;;;8.93;;
49610;SDS011;35515;48.766;9.176;2023-08-30T05:42:40;9.35;;;8.00;;
49610;SDS011;35515;48.766;9.176;2023-08-30T05:45:09;9.13;;;8.23;;
49610;SDS011;35515;48.766;9.176;2023-08-30T05:47:35;9.43;;;7.35;;
49610;SDS011;35515;48.766;9.176;2023-08-30T05:50:02;8.60;;;7.78;;
49610;SDS011;35515;48.766;9.176;2023-08-30T05:52:29;9.30;;;7.50;;
49610;SDS011;35515;48.766;9.176;2023-08-30T05:54:56;8.27;;;7.47;;
49610;SDS011;35515;48.766;9.176;2023-08-30T05:57:22;8.35;;;7.55;;
49610;SDS011;35515;48.766;9.176;2023-08-30T05:59:50;9.57;;;8.02;;
49610;SDS011;35515;48.766;9.176;2023-08-30T06:02:18;10.32;;;8.23;;
49610;SDS011;35515;48.766;9.176;2023-08-30T06:04:45;8.65;;;7.53;;
49610;SDS011;35515;48.766;9.176;2023-08-30T06:07:11;8.73;;;7.82;;
49610;SDS011;35515;48.766;9.176;2023-08-30T06:09:38;7.78;;;6.90;;
49610;SDS011;35515;48.766;9.176;2023-08-30T06:12:05;10.25;;;7.57;;
49610;SDS011;35515;48.766;9.176;2023-08-30T06:14:32;8.68;;;7.50;;
49610;SDS011;35515;48.766;9.176;2023-08-30T06:16:59;7.95;;;7.15;;
49610;SDS011;35515;48.766;9.176;2023-08-30T06:19:26;9.75;;;6.80;;
49610;SDS011;35515;48.766;9.176;2023-08-30T06:21:53;8.68;;;7.78;;
49610;SDS011;35515;48.766;9.176;2023-08-30T06:24:19;9.23;;;7.75;;
49610;SDS011;35515;48.766;9.176;2023-08-30T06:26:46;8.65;;;7.75;;
49610;SDS011;35515;48.766;9.176;2023-08-30T06:29:12;8.68;;;7.43;;
49610;SDS011;35515;48.766;9.176;2023-08-30T06:31:39;9.45;;;7.53;;
49610;SDS011;35515;48.766;9.176;2023-08-30T06:34:07;10.18;;;8.27;;
49610;SDS011;35515;48.766;9.176;2023-08-30T06:36:35;10.35;;;8.40;;
49610;SDS011;35515;48.766;9.176;2023-08-30T06:39:01;8.48;;;7.45;;
49610;SDS011;35515;48.766;9.176;2023-08-30T06:41:28;8.60;;;7.10;;
49610;SDS011;35515;48.766;9.176;2023-08-30T06:43:54;10.18;;;7.47;;
49610;SDS011;35515;48.766;9.176;2023-08-30T06:46:22;8.15;;;6.22;;
49610;SDS011;35515;48.766;9.176;2023-08-30T06:48:48;7.60;;;6.72;;
49610;SDS011;35515;48.766;9.176;2023-08-30T06:51:15;8.45;;;7.15;;
49610;SDS011;35515;48.766;9.176;2023-08-30T06:53:43;10.02;;;7.60;;
49610;SDS011;35515;48.766;9.176;2023-08-30T06:56:09;10.93;;;7.22;;
49610;SDS011;35515;48.766;9.176;2023-08-30T06:58:36;7.78;;;6.90;;
49610;SDS011;35515;48.766;9.176;2023-08-30T07:01:02;8.35;;;6.88;;
49610;SDS011;35515;48.766;9.176;2023-08-30T07:03:29;9.25;;;7.40;;
49610;SDS011;35515;48.766;9.176;2023-08-30T07:05:56;8.25;;;6.72;;
49610;SDS011;35515;48.766;9.176;2023-08-30T07:08:22;7.50;;;6.43;;
49610;SDS011;35515;48.766;9.176;2023-08-30T07:10:50;8.98;;;6.65;;
49610;SDS011;35515;48.766;9.176;2023-08-30T07:13:17;8.43;;;6.68;;
49610;SDS011;35515;48.766;9.176;2023-08-30T07:15:43;7.30;;;6.47;;
49610;SDS011;35515;48.766;9.176;2023-08-30T07:18:10;8.38;;;6.47;;
49610;SDS011;35515;48.766;9.176;2023-08-30T07:20:38;8.55;;;6.80;;
49610;SDS011;35515;48.766;9.176;2023-08-30T07:23:05;8.40;;;7.20;;
49610;SDS011;35515;48.766;9.176;2023-08-30T07:25:31;7.43;;;6.10;;
49610;SDS011;35515;48.766;9.176;2023-08-30T07:28:00;8.57;;;6.28;;
49610;SDS011;35515;48.766;9.176;2023-08-30T07:30:26;8.57;;;6.90;;
49610;SDS011;35515;48.766;9.176;2023-08-30T07:32:53;8.13;;;6.38;;
49610;SDS011;35515;48.766;9.176;2023-08-30T07:35:19;7.32;;;6.32;;
49610;SDS011;35515;48.766;9.176;2023-08-30T07:37:46;11.43;;;7.18;;
49610;SDS011;35515;48.766;9.176;2023-08-30T07:40:12;6.97;;;6.28;;
49610;SDS011;35515;48.766;9.176;2023-08-30T07:42:39;8.57;;;6.72;;
49610;SDS011;35515;48.766;9.176;2023-08-30T07:45:08;8.73;;;6.47;;
49610;SDS011;35515;48.766;9.176;2023-08-30T07:47:35;9.18;;;6.97;;
49610;SDS011;35515;48.766;9.176;2023-08-30T07:50:04;8.50;;;6.35;;
49610;SDS011;35515;48.766;9.176;2023-08-30T07:52:31;6.72;;;5.95;;
49610;SDS011;35515;48.766;9.176;2023-08-30T07:54:58;6.25;;;5.60;;
49610;SDS011;35515;48.766;9.176;2023-08-30T07:57:24;6.28;;;5.68;;
49610;SDS011;35515;48.766;9.176;2023-08-30T07:59:51;8.23;;;6.20;;
49610;SDS011;35515;48.766;9.176;2023-08-30T08:02:19;8.02;;;6.78;;
49610;SDS011;35515;48.766;9.176;2023-08-30T08:04:45;7.43;;;6.35;;
49610;SDS011;35515;48.766;9.176;2023-08-30T08:07:12;6.68;;;5.95;;
49610;SDS011;35515;48.766;9.176;2023-08-30T08:09:38;6.95;;;6.05;;
49610;SDS011;35515;48.766;9.176;2023-08-30T08:12:05;6.70;;;6.00;;
49610;SDS011;35515;48.766;9.176;2023-08-30T08:14:31;7.15;;;6.45;;
49610;SDS011;35515;48.766;9.176;2023-08-30T08:16:58;7.03;;;6.22;;
49610;SDS011;35515;48.766;9.176;2023-08-30T08:19:26;7.28;;;6.55;;
49610;SDS011;35515;48.766;9.176;2023-08-30T08:21:52;7.78;;;5.90;;
49610;SDS011;35515;48.766;9.176;2023-08-30T08:24:19;7.00;;;6.30;;
49610;SDS011;35515;48.766;9.176;2023-08-30T08:26:46;7.28;;;6.07;;
49610;SDS011;35515;48.766;9.176;2023-08-30T08:29:13;6.75;;;5.75;;
49610;SDS011;35515;48.766;9.176;2023-08-30T08:31:39;6.93;;;6.22;;
49610;SDS011;35515;48.766;9.176;2023-08-30T08:34:07;7.85;;;6.32;;
49610;SDS011;35515;48.766;9.176;2023-08-30T08:36:37;8.25;;;6.43;;
49610;SDS011;35515;48.766;9.176;2023-08-30T08:39:04;8.20;;;6.07;;
49610;SDS011;35515;48.766;9.176;2023-08-30T08:41:34;7.15;;;5.93;;
49610;SDS011;35515;48.766;9.176;2023-08-30T08:44:04;6.95;;;5.32;;
49610;SDS011;35515;48.766;9.176;2023-08-30T08:46:33;7.60;;;6.38;;
49610;SDS011;35515;48.766;9.176;2023-08-30T08:49:01;6.97;;;6.28;;
49610;SDS011;35515;48.766;9.176;2023-08-30T08:51:31;7.18;;;5.53;;
49610;SDS011;35515;48.766;9.176;2023-08-30T08:54:02;7.25;;;5.85;;
49610;SDS011;35515;48.766;9.176;2023-08-30T08:56:30;7.15;;;5.35;;
49610;SDS011;35515;48.766;9.176;2023-08-30T08:58:57;7.70;;;5.97;;
49610;SDS011;35515;48.766;9.176;2023-08-30T09:01:24;6.85;;;5.88;;
49610;SDS011;35515;48.766;9.176;2023-08-30T09:03:51;8.05;;;5.40;;
49610;SDS011;35515;48.766;9.176;2023-08-30T09:06:18;6.38;;;5.03;;
49610;SDS011;35515;48.766;9.176;2023-08-30T09:08:45;6.60;;;5.25;;
49610;SDS011;35515;48.766;9.176;2023-08-30T09:11:13;7.68;;;5.25;;
49610;SDS011;35515;48.766;9.176;2023-08-30T09:13:39;5.88;;;4.82;;
49610;SDS011;35515;48.766;9.176;2023-08-30T09:16:11;6.30;;;4.93;;
49610;SDS011;35515;48.766;9.176;2023-08-30T09:18:38;7.82;;;4.57;;
49610;SDS011;35515;48.766;9.176;2023-08-30T09:21:05;4.93;;;4.25;;
49610;SDS011;35515;48.766;9.176;2023-08-30T09:23:32;7.60;;;5.13;;
49610;SDS011;35515;48.766;9.176;2023-08-30T09:25:59;5.28;;;4.32;;
49610;SDS011;35515;48.766;9.176;2023-08-30T09:28:28;6.18;;;4.50;;
49610;SDS011;35515;48.766;9.176;2023-08-30T09:30:57;5.10;;;4.22;;
49610;SDS011;35515;48.766;9.176;2023-08-30T09:33:29;5.45;;;4.25;;
49610;SDS011;35515;48.766;9.176;2023-08-30T09:35:57;5.53;;;3.80;;
49610;SDS011;35515;48.766;9.176;2023-08-30T09:38:24;4.63;;;4.18;;
49610;SDS011;35515;48.766;9.176;2023-08-30T09:40:50;4.65;;;3.80;;
49610;SDS011;35515;48.766;9.176;2023-08-30T09:43:18;5.40;;;3.95;;
49610;SDS011;35515;48.766;9.176;2023-08-30T09:45:48;4.55;;;3.38;;
49610;SDS011;35515;48.766;9.176;2023-08-30T09:48:14;4.95;;;4.07;;
49610;SDS011;35515;48.766;9.176;2023-08-30T09:50:41;4.97;;;3.70;;
49610;SDS011;35515;48.766;9.176;2023-08-30T09:53:11;4.40;;;3.72;;
49610;SDS011;35515;48.766;9.176;2023-08-30T09:55:42;4.32;;;3.70;;
49610;SDS011;35515;48.766;9.176;2023-08-30T09:58:09;6.00;;;3.83;;
49610;SDS011;35515;48.766;9.176;2023-08-30T10:00:36;5.55;;;3.60;;
49610;SDS011;35515;48.766;9.176;2023-08-30T10:03:05;4.15;;;2.95;;
49610;SDS011;35515;48.766;9.176;2023-08-30T10:05:32;4.57;;;2.97;;
49610;SDS011;35515;48.766;9.176;2023-08-30T10:08:01;3.40;;;2.97;;
49610;SDS011;35515;48.766;9.176;2023-08-30T10:10:29;3.80;;;3.28;;
49610;SDS011;35515;48.766;9.176;2023-08-30T10:12:57;5.00;;;3.33;;
49610;SDS011;35515;48.766;9.176;2023-08-30T10:15:24;3.47;;;2.40;;
49610;SDS011;35515;48.766;9.176;2023-08-30T10:17:56;3.33;;;2.35;;
49610;SDS011;35515;48.766;9.176;2023-08-30T10:20:26;3.80;;;2.45;;
49610;SDS011;35515;48.766;9.176;2023-08-30T10:22:54;3.88;;;2.20;;
49610;SDS011;35515;48.766;9.176;2023-08-30T10:25:24;4.35;;;2.80;;
49610;SDS011;35515;48.766;9.176;2023-08-30T10:27:53;2.47;;;2.28;;
49610;SDS011;35515;48.766;9.176;2023-08-30T10:30:21;3.92;;;2.58;;
49610;SDS011;35515;48.766;9.176;2023-08-30T10:32:48;4.43;;;2.25;;
49610;SDS011;35515;48.766;9.176;2023-08-30T10:35:15;3.53;;;2.28;;
49610;SDS011;35515;48.766;9.176;2023-08-30T10:37:54;3.78;;;2.10;;
49610;SDS011;35515;48.766;9.176;2023-08-30T10:40:21;3.75;;;2.33;;
49610;SDS011;35515;48.766;9.176;2023-08-30T10:42:58;2.55;;;2.17;;
49610;SDS011;35515;48.766;9.176;2023-08-30T10:45:26;2.85;;;2.08;;
49610;SDS011;35515;48.766;9.176;2023-08-30T10:47:56;3.17;;;2.28;;
49610;SDS011;35515;48.766;9.176;2023-08-30T10:50:28;2.83;;;2.22;;
49610;SDS011;35515;48.766;9.176;2023-08-30T10:52:57;2.65;;;2.30;;
49610;SDS011;35515;48.766;9.176;2023-08-30T10:55:24;2.80;;;2.00;;
49610;SDS011;35515;48.766;9.176;2023-08-30T10:57:57;2.60;;;2.30;;
49610;SDS011;35515;48.766;9.176;2023-08-30T11:00:27;4.00;;;2.15;;
49610;SDS011;35515;48.766;9.176;2023-08-30T11:02:54;3.10;;;2.05;;
49610;SDS011;35515;48.766;9.176;2023-08-30T11:05:21;4.72;;;2.63;;
49610;SDS011;35515;48.766;9.176;2023-08-30T11:07:49;3.00;;;2.10;;
49610;SDS011;35515;48.766;9.176;2023-08-30T11:10:18;4.43;;;2.50;;
49610;SDS011;35515;48.766;9.176;2023-08-30T11:12:46;3.65;;;2.92;;
49610;SDS011;35515;48.766;9.176;2023-08-30T11:15:14;3.92;;;2.22;;
49610;SDS011;35515;48.766;9.176;2023-08-30T11:17:41;2.78;;;1.98;;
49610;SDS011;35515;48.766;9.176;2023-08-30T11:20:08;3.13;;;2.20;;
49610;SDS011;35515;48.766;9.176;2023-08-30T11:22:36;4.38;;;2.92;;
49610;SDS011;35515;48.766;9.176;2023-08-30T11:25:04;4.45;;;2.72;;
49610;SDS011;35515;48.766;9.176;2023-08-30T11:27:32;4.22;;;2.42;;
49610;SDS011;35515;48.766;9.176;2023-08-30T11:29:59;3.70;;;2.20;;
49610;SDS011;35515;48.766;9.176;2023-08-30T11:32:27;5.88;;;2.65;;
49610;SDS011;35515;48.766;9.176;2023-08-30T11:34:56;3.58;;;2.20;;
49610;SDS011;35515;48.766;9.176;2023-08-30T11:37:23;2.42;;;2.13;;
49610;SDS011;35515;48.766;9.176;2023-08-30T11:39:52;6.25;;;4.38;;
49610;SDS011;35515;48.766;9.176;2023-08-30T11:42:18;3.67;;;2.30;;
49610;SDS011;35515;48.766;9.176;2023-08-30T11:44:46;4.55;;;2.80;;
49610;SDS011;35515;48.766;9.176;2023-08-30T11:47:17;3.47;;;2.80;;
49610;SDS011;35515;48.766;9.176;2023-08-30T11:52:11;4.43;;;3.00;;
49610;SDS011;35515;48.766;9.176;2023-08-30T11:54:37;3.25;;;2.55;;
49610;SDS011;35515;48.766;9.176;2023-08-30T11:57:04;3.70;;;2.72;;
49610;SDS011;35515;48.766;9.176;2023-08-30T11:59:34;4.28;;;2.63;;
49610;SDS011;35515;48.766;9.176;2023-08-30T12:02:02;2.55;;;2.30;;
49610;SDS011;35515;48.766;9.176;2023-08-30T12:04:29;3.67;;;2.97;;
49610;SDS011;35515;48.766;9.176;2023-08-30T12:06:56;3.90;;;2.80;;
49610;SDS011;35515;48.766;9.176;2023-08-30T12:09:29;3.00;;;2.65;;
49610;SDS011;35515;48.766;9.176;2023-08-30T12:12:04;4.20;;;3.17;;
49610;SDS011;35515;48.766;9.176;2023-08-30T12:14:32;4.20;;;3.25;;
49610;SDS011;35515;48.766;9.176;2023-08-30T12:16:59;4.10;;;3.60;;
49610;SDS011;35515;48.766;9.176;2023-08-30T12:19:29;4.15;;;3.25;;
49610;SDS011;35515;48.766;9.176;2023-08-30T12:22:02;3.70;;;3.20;;
49610;SDS011;35515;48.766;9.176;2023-08-30T12:24:39;5.32;;;3.38;;
49610;SDS011;35515;48.766;9.176;2023-08-30T12:27:06;4.45;;;3.45;;
49610;SDS011;35515;48.766;9.176;2023-08-30T12:29:33;4.13;;;3.50;;
49610;SDS011;35515;48.766;9.176;2023-08-30T12:31:59;4.20;;;3.33;;
49610;SDS011;35515;48.766;9.176;2023-08-30T12:34:26;7.47;;;3.95;;
49610;SDS011;35515;48.766;9.176;2023-08-30T12:36:54;5.43;;;3.83;;
49610;SDS011;35515;48.766;9.176;2023-08-30T12:39:21;4.63;;;3.25;;
49610;SDS011;35515;48.766;9.176;2023-08-30T12:41:47;5.78;;;3.13;;
49610;SDS011;35515;48.766;9.176;2023-08-30T12:44:14;4.18;;;2.90;;
49610;SDS011;35515;48.766;9.176;2023-08-30T12:46:40;3.58;;;2.80;;
49610;SDS011;35515;48.766;9.176;2023-08-30T12:49:07;5.18;;;2.67;;
49610;SDS011;35515;48.766;9.176;2023-08-30T12:51:34;3.08;;;2.65;;
49610;SDS011;35515;48.766;9.176;2023-08-30T12:54:01;5.32;;;2.95;;
49610;SDS011;35515;48.766;9.176;2023-08-30T12:56:28;3.85;;;3.30;;
49610;SDS011;35515;48.766;9.176;2023-08-30T12:58:54;3.78;;;3.38;;
49610;SDS011;35515;48.766;9.176;2023-08-30T13:01:21;4.82;;;3.10;;
49610;SDS011;35515;48.766;9.176;2023-08-30T13:03:49;3.53;;;3.03;;
49610;SDS011;35515;48.766;9.176;2023-08-30T13:06:16;4.63;;;3.40;;
49610;SDS011;35515;48.766;9.176;2023-08-30T13:08:42;4.18;;;3.45;;
49610;SDS011;35515;48.766;9.176;2023-08-30T13:11:10;4.32;;;3.47;;
49610;SDS011;35515;48.766;9.176;2023-08-30T13:13:36;5.13;;;3.88;;
49610;SDS011;35515;48.766;9.176;2023-08-30T13:16:03;4.18;;;3.38;;
49610;SDS011;35515;48.766;9.176;2023-08-30T13:18:30;5.13;;;3.65;;
49610;SDS011;35515;48.766;9.176;2023-08-30T13:20:56;4.38;;;3.65;;
49610;SDS011;35515;48.766;9.176;2023-08-30T13:23:23;4.97;;;3.90;;
49610;SDS011;35515;48.766;9.176;2023-08-30T13:25:49;6.78;;;3.72;;
49610;SDS011;35515;48.766;9.176;2023-08-30T13:28:17;5.13;;;3.92;;
49610;SDS011;35515;48.766;9.176;2023-08-30T13:30:44;4.32;;;3.45;;
49610;SDS011;35515;48.766;9.176;2023-08-30T13:33:10;5.72;;;3.80;;
49610;SDS011;35515;48.766;9.176;2023-08-30T13:35:38;4.85;;;3.28;;
49610;SDS011;35515;48.766;9.176;2023-08-30T13:38:05;4.30;;;3.25;;
49610;SDS011;35515;48.766;9.176;2023-08-30T13:40:31;6.70;;;3.00;;
49610;SDS011;35515;48.766;9.176;2023-08-30T13:42:58;3.80;;;3.10;;
49610;SDS011;35515;48.766;9.176;2023-08-30T13:45:26;3.95;;;3.08;;
49610;SDS011;35515;48.766;9.176;2023-08-30T13:47:52;3.75;;;3.30;;
49610;SDS011;35515;48.766;9.176;2023-08-30T13:50:20;3.90;;;3.00;;
49610;SDS011;35515;48.766;9.176;2023-08-30T13:52:46;5.40;;;3.40;;
49610;SDS011;35515;48.766;9.176;2023-08-30T13:55:13;5.00;;;3.30;;
49610;SDS011;35515;48.766;9.176;2023-08-30T13:57:39;4.50;;;3.03;;
49610;SDS011;35515;48.766;9.176;2023-08-30T14:00:06;5.88;;;2.75;;
49610;SDS011;35515;48.766;9.176;2023-08-30T14:02:36;5.65;;;4.47;;
49610;SDS011;35515;48.766;9.176;2023-08-30T14:05:03;4.90;;;3.88;;
49610;SDS011;35515;48.766;9.176;2023-08-30T14:07:30;4.53;;;3.65;;
49610;SDS011;35515;48.766;9.176;2023-08-30T14:09:57;4.65;;;3.03;;
49610;SDS011;35515;48.766;9.176;2023-08-30T14:12:24;5.03;;;2.50;;
49610;SDS011;35515;48.766;9.176;2023-08-30T14:14:50;4.43;;;3.17;;
49610;SDS011;35515;48.766;9.176;2023-08-30T14:17:18;3.90;;;2.95;;
49610;SDS011;35515;48.766;9.176;2023-08-30T14:19:47;3.78;;;3.10;;
49610;SDS011;35515;48.766;9.176;2023-08-30T14:22:14;3.15;;;2.60;;
49610;SDS011;35515;48.766;9.176;2023-08-30T14:24:40;5.65;;;3.63;;
49610;SDS011;35515;48.766;9.176;2023-08-30T14:27:07;5.90;;;3.33;;
49610;SDS011;35515;48.766;9.176;2023-08-30T14:29:33;5.10;;;2.72;;
49610;SDS011;35515;48.766;9.176;2023-08-30T14:32:00;3.58;;;2.40;;
49610;SDS011;35515;48.766;9.176;2023-08-30T14:34:28;4.50;;;2.90;;
49610;SDS011;35515;48.766;9.176;2023-08-30T14:36:56;3.60;;;2.78;;
49610;SDS011;35515;48.766;9.176;2023-08-30T14:39:23;5.75;;;4.20;;
49610;SDS011;35515;48.766;9.176;2023-08-30T14:41:49;5.13;;;3.92;;
49610;SDS011;35515;48.766;9.176;2023-08-30T14:44:16;6.93;;;5.53;;
49610;SDS011;35515;48.766;9.176;2023-08-30T14:46:42;8.73;;;6.88;;
49610;SDS011;35515;48.766;9.176;2023-08-30T14:49:09;7.22;;;5.72;;